sensor_id;sensor_type;location;lat;lon;timestamp;temperature;humidity
24085;DHT22;12268;52.110;5.548;2023-05-29T00:02:08;15.00;99.90
24085;DHT22;12268;52.110;5.548;2023-05-29T00:04:33;15.00;99.90
24085;DHT22;12268;52.110;5.548;2023-05-29T00:06:59;14.90;99.90
24085;DHT22;12268;52.110;5.548;2023-05-29T00:09:25;14.90;99.90
24085;DHT22;12268;52.110;5.548;2023-05-29T00:11:51;14.90;99.90
24085;DHT22;12268;52.110;5.548;2023-05-29T00:14:21;14.90;99.90
24085;DHT22;12268;52.110;5.548;2023-05-29T01:29:26;14.50;99.90
24085;DHT22;12268;52.110;5.548;2023-05-29T01:31:53;14.60;99.90
24085;DHT22;12268;52.110;5.548;2023-05-29T01:34:19;14.60;99.90
24085;DHT22;12268;52.110;5.548;2023-05-29T01:36:45;14.60;99.90
24085;DHT22;12268;52.110;5.548;2023-05-29T01:39:12;14.50;99.90
24085;DHT22;12268;52.110;5.548;2023-05-29T01:41:38;14.40;99.90
24085;DHT22;12268;52.110;5.548;2023-05-29T01:44:06;14.40;99.90
24085;DHT22;12268;52.110;5.548;2023-05-29T01:46:37;14.40;99.90
24085;DHT22;12268;52.110;5.548;2023-05-29T01:49:04;14.40;99.90
24085;DHT22;12268;52.110;5.548;2023-05-29T01:51:29;14.40;99.90
24085;DHT22;12268;52.110;5.548;2023-05-29T01:53:57;14.30;99.90
24085;DHT22;12268;52.110;5.548;2023-05-29T01:56:23;14.30;99.90
24085;DHT22;12268;52.110;5.548;2023-05-29T01:58:50;14.30;99.90
24085;DHT22;12268;52.110;5.548;2023-05-29T02:01:16;14.00;99.90
24085;DHT22;12268;52.110;5.548;2023-05-29T02:03:42;14.00;99.90
24085;DHT22;12268;52.110;5.548;2023-05-29T02:06:07;14.10;99.90
24085;DHT22;12268;52.110;5.548;2023-05-29T02:08:33;14.10;99.90
24085;DHT22;12268;52.110;5.548;2023-05-29T02:10:58;14.20;99.90
24085;DHT22;12268;52.110;5.548;2023-05-29T02:13:24;14.20;99.90
24085;DHT22;12268;52.110;5.548;2023-05-29T02:15:49;14.10;99.90
24085;DHT22;12268;52.110;5.548;2023-05-29T02:18:17;14.10;99.90
24085;DHT22;12268;52.110;5.548;2023-05-29T02:20:45;14.00;99.90
24085;DHT22;12268;52.110;5.548;2023-05-29T02:23:11;14.10;99.90
24085;DHT22;12268;52.110;5.548;2023-05-29T02:25:37;14.00;99.90
24085;DHT22;12268;52.110;5.548;2023-05-29T02:28:04;14.00;99.90
24085;DHT22;12268;52.110;5.548;2023-05-29T02:30:30;14.10;99.90
24085;DHT22;12268;52.110;5.548;2023-05-29T02:32:56;14.10;99.90
24085;DHT22;12268;52.110;5.548;2023-05-29T02:35:21;14.00;99.90
24085;DHT22;12268;52.110;5.548;2023-05-29T02:37:51;14.00;99.90
24085;DHT22;12268;52.110;5.548;2023-05-29T02:40:18;14.00;99.90
24085;DHT22;12268;52.110;5.548;2023-05-29T02:42:44;13.90;99.90
24085;DHT22;12268;52.110;5.548;2023-05-29T02:45:10;13.90;99.90
24085;DHT22;12268;52.110;5.548;2023-05-29T02:47:36;13.90;99.90
24085;DHT22;12268;52.110;5.548;2023-05-29T02:50:02;13.90;99.90
24085;DHT22;12268;52.110;5.548;2023-05-29T02:52:28;13.90;99.90
24085;DHT22;12268;52.110;5.548;2023-05-29T02:54:53;13.90;99.90
24085;DHT22;12268;52.110;5.548;2023-05-29T02:57:22;13.80;99.90
24085;DHT22;12268;52.110;5.548;2023-05-29T02:59:48;13.80;99.90
24085;DHT22;12268;52.110;5.548;2023-05-29T03:02:14;13.70;99.90
24085;DHT22;12268;52.110;5.548;2023-05-29T03:04:39;13.70;99.90
24085;DHT22;12268;52.110;5.548;2023-05-29T03:07:05;13.70;99.90
24085;DHT22;12268;52.110;5.548;2023-05-29T03:09:32;13.70;99.90
24085;DHT22;12268;52.110;5.548;2023-05-29T03:11:57;13.70;99.90
24085;DHT22;12268;52.110;5.548;2023-05-29T03:14:23;13.70;99.90
24085;DHT22;12268;52.110;5.548;2023-05-29T03:16:49;13.70;99.90
24085;DHT22;12268;52.110;5.548;2023-05-29T03:19:14;13.70;99.90
24085;DHT22;12268;52.110;5.548;2023-05-29T03:21:40;13.60;99.90
24085;DHT22;12268;52.110;5.548;2023-05-29T03:24:06;13.70;99.90
24085;DHT22;12268;52.110;5.548;2023-05-29T03:26:31;13.40;99.90
24085;DHT22;12268;52.110;5.548;2023-05-29T03:28:57;13.40;99.90
24085;DHT22;12268;52.110;5.548;2023-05-29T03:31:22;13.50;99.90
24085;DHT22;12268;52.110;5.548;2023-05-29T03:33:49;13.60;99.90
24085;DHT22;12268;52.110;5.548;2023-05-29T03:36:15;13.60;99.90
24085;DHT22;12268;52.110;5.548;2023-05-29T03:38:44;13.60;99.90
24085;DHT22;12268;52.110;5.548;2023-05-29T03:41:10;13.50;99.90
24085;DHT22;12268;52.110;5.548;2023-05-29T03:43:35;13.50;99.90
24085;DHT22;12268;52.110;5.548;2023-05-29T03:46:01;13.50;99.90
24085;DHT22;12268;52.110;5.548;2023-05-29T03:48:27;13.60;99.90
24085;DHT22;12268;52.110;5.548;2023-05-29T03:50:53;13.70;99.90
24085;DHT22;12268;52.110;5.548;2023-05-29T03:53:18;13.70;99.90
24085;DHT22;12268;52.110;5.548;2023-05-29T03:55:44;13.60;99.90
24085;DHT22;12268;52.110;5.548;2023-05-29T03:58:09;13.60;99.90
24085;DHT22;12268;52.110;5.548;2023-05-29T04:00:37;13.60;99.90
24085;DHT22;12268;52.110;5.548;2023-05-29T04:03:03;13.70;99.90
24085;DHT22;12268;52.110;5.548;2023-05-29T04:05:29;13.70;99.90
24085;DHT22;12268;52.110;5.548;2023-05-29T04:07:55;13.70;99.90
24085;DHT22;12268;52.110;5.548;2023-05-29T04:10:21;13.70;99.90
24085;DHT22;12268;52.110;5.548;2023-05-29T04:12:47;13.60;99.90
24085;DHT22;12268;52.110;5.548;2023-05-29T04:15:12;13.60;99.90
24085;DHT22;12268;52.110;5.548;2023-05-29T04:17:38;13.70;99.90
24085;DHT22;12268;52.110;5.548;2023-05-29T04:20:04;13.70;99.90
24085;DHT22;12268;52.110;5.548;2023-05-29T04:22:35;13.80;99.90
24085;DHT22;12268;52.110;5.548;2023-05-29T04:25:01;13.80;99.90
24085;DHT22;12268;52.110;5.548;2023-05-29T04:27:26;13.90;99.90
24085;DHT22;12268;52.110;5.548;2023-05-29T04:29:52;14.00;99.90
24085;DHT22;12268;52.110;5.548;2023-05-29T04:32:19;14.00;99.90
24085;DHT22;12268;52.110;5.548;2023-05-29T04:34:44;14.00;99.90
24085;DHT22;12268;52.110;5.548;2023-05-29T04:37:10;14.00;99.90
24085;DHT22;12268;52.110;5.548;2023-05-29T04:39:35;14.10;99.90
24085;DHT22;12268;52.110;5.548;2023-05-29T04:42:01;14.10;99.90
24085;DHT22;12268;52.110;5.548;2023-05-29T04:44:26;14.20;99.90
24085;DHT22;12268;52.110;5.548;2023-05-29T04:46:53;14.20;99.90
24085;DHT22;12268;52.110;5.548;2023-05-29T04:49:19;14.30;99.90
24085;DHT22;12268;52.110;5.548;2023-05-29T04:51:45;14.20;99.90
24085;DHT22;12268;52.110;5.548;2023-05-29T04:54:11;13.90;99.90
24085;DHT22;12268;52.110;5.548;2023-05-29T04:56:37;14.00;99.90
24085;DHT22;12268;52.110;5.548;2023-05-29T04:59:05;13.80;99.90
24085;DHT22;12268;52.110;5.548;2023-05-29T05:01:32;14.00;99.90
24085;DHT22;12268;52.110;5.548;2023-05-29T05:03:59;14.20;99.90
24085;DHT22;12268;52.110;5.548;2023-05-29T05:06:25;14.20;99.90
24085;DHT22;12268;52.110;5.548;2023-05-29T05:08:51;14.40;99.90
24085;DHT22;12268;52.110;5.548;2023-05-29T05:11:22;14.50;99.90
24085;DHT22;12268;52.110;5.548;2023-05-29T05:13:47;14.50;99.90
24085;DHT22;12268;52.110;5.548;2023-05-29T05:16:13;14.60;99.90
24085;DHT22;12268;52.110;5.548;2023-05-29T05:18:38;14.70;99.90
24085;DHT22;12268;52.110;5.548;2023-05-29T05:21:04;14.60;99.90
24085;DHT22;12268;52.110;5.548;2023-05-29T05:23:30;14.40;99.90
24085;DHT22;12268;52.110;5.548;2023-05-29T05:25:55;14.40;99.90
24085;DHT22;12268;52.110;5.548;2023-05-29T05:28:21;14.70;99.90
24085;DHT22;12268;52.110;5.548;2023-05-29T05:30:47;14.70;99.90
24085;DHT22;12268;52.110;5.548;2023-05-29T05:33:12;14.80;99.90
24085;DHT22;12268;52.110;5.548;2023-05-29T05:35:38;14.90;99.90
24085;DHT22;12268;52.110;5.548;2023-05-29T05:38:04;14.80;99.90
24085;DHT22;12268;52.110;5.548;2023-05-29T05:40:29;14.90;99.90
24085;DHT22;12268;52.110;5.548;2023-05-29T05:42:55;15.10;99.90
24085;DHT22;12268;52.110;5.548;2023-05-29T05:45:20;15.30;99.90
24085;DHT22;12268;52.110;5.548;2023-05-29T05:47:46;14.90;99.90
24085;DHT22;12268;52.110;5.548;2023-05-29T05:50:12;15.00;99.90
24085;DHT22;12268;52.110;5.548;2023-05-29T05:52:38;15.10;99.90
24085;DHT22;12268;52.110;5.548;2023-05-29T05:55:04;15.30;99.90
24085;DHT22;12268;52.110;5.548;2023-05-29T05:57:29;15.30;99.90
24085;DHT22;12268;52.110;5.548;2023-05-29T05:59:55;15.60;99.90
24085;DHT22;12268;52.110;5.548;2023-05-29T06:02:20;15.40;99.90
24085;DHT22;12268;52.110;5.548;2023-05-29T06:04:46;15.40;99.90
24085;DHT22;12268;52.110;5.548;2023-05-29T06:07:12;15.60;99.90
24085;DHT22;12268;52.110;5.548;2023-05-29T06:09:37;15.80;99.90
24085;DHT22;12268;52.110;5.548;2023-05-29T06:12:03;15.80;99.90
24085;DHT22;12268;52.110;5.548;2023-05-29T06:14:28;15.50;99.90
24085;DHT22;12268;52.110;5.548;2023-05-29T06:16:54;15.80;99.90
24085;DHT22;12268;52.110;5.548;2023-05-29T06:19:20;15.50;99.90
24085;DHT22;12268;52.110;5.548;2023-05-29T06:21:45;15.20;99.90
24085;DHT22;12268;52.110;5.548;2023-05-29T06:24:12;14.70;99.90
24085;DHT22;12268;52.110;5.548;2023-05-29T06:26:37;14.80;99.90
24085;DHT22;12268;52.110;5.548;2023-05-29T06:29:03;14.90;99.90
24085;DHT22;12268;52.110;5.548;2023-05-29T06:31:28;15.00;99.90
24085;DHT22;12268;52.110;5.548;2023-05-29T06:33:54;15.40;99.90
24085;DHT22;12268;52.110;5.548;2023-05-29T06:36:20;15.80;99.90
24085;DHT22;12268;52.110;5.548;2023-05-29T06:38:47;15.70;99.90
24085;DHT22;12268;52.110;5.548;2023-05-29T06:41:13;15.70;99.90
24085;DHT22;12268;52.110;5.548;2023-05-29T06:43:39;15.30;99.90
24085;DHT22;12268;52.110;5.548;2023-05-29T06:46:04;15.20;99.90
24085;DHT22;12268;52.110;5.548;2023-05-29T06:48:33;15.20;99.90
24085;DHT22;12268;52.110;5.548;2023-05-29T06:50:59;15.60;99.90
24085;DHT22;12268;52.110;5.548;2023-05-29T06:53:25;15.90;99.90
24085;DHT22;12268;52.110;5.548;2023-05-29T06:55:51;15.40;99.90
24085;DHT22;12268;52.110;5.548;2023-05-29T06:58:17;16.00;99.90
24085;DHT22;12268;52.110;5.548;2023-05-29T07:00:42;16.10;99.90
24085;DHT22;12268;52.110;5.548;2023-05-29T07:03:08;15.90;99.90
24085;DHT22;12268;52.110;5.548;2023-05-29T07:05:33;16.30;99.90
24085;DHT22;12268;52.110;5.548;2023-05-29T07:07:59;16.80;99.90
24085;DHT22;12268;52.110;5.548;2023-05-29T07:10:24;16.00;99.90
24085;DHT22;12268;52.110;5.548;2023-05-29T07:12:50;16.50;99.90
24085;DHT22;12268;52.110;5.548;2023-05-29T07:15:15;16.60;99.90
24085;DHT22;12268;52.110;5.548;2023-05-29T07:17:41;17.00;99.90
24085;DHT22;12268;52.110;5.548;2023-05-29T07:20:07;17.50;99.90
24085;DHT22;12268;52.110;5.548;2023-05-29T07:22:33;17.90;99.90
24085;DHT22;12268;52.110;5.548;2023-05-29T07:25:00;17.80;99.90
24085;DHT22;12268;52.110;5.548;2023-05-29T07:27:25;18.20;99.90
24085;DHT22;12268;52.110;5.548;2023-05-29T07:29:51;18.00;99.90
24085;DHT22;12268;52.110;5.548;2023-05-29T07:32:16;18.20;99.90
24085;DHT22;12268;52.110;5.548;2023-05-29T07:34:42;18.30;99.90
24085;DHT22;12268;52.110;5.548;2023-05-29T07:37:08;18.50;99.90
24085;DHT22;12268;52.110;5.548;2023-05-29T07:39:34;18.40;99.90
24085;DHT22;12268;52.110;5.548;2023-05-29T07:42:01;18.80;99.90
24085;DHT22;12268;52.110;5.548;2023-05-29T07:44:26;19.20;99.90
24085;DHT22;12268;52.110;5.548;2023-05-29T07:46:52;19.50;99.90
24085;DHT22;12268;52.110;5.548;2023-05-29T11:00:47;30.60;49.40
24085;DHT22;12268;52.110;5.548;2023-05-29T11:03:30;31.10;49.90
24085;DHT22;12268;52.110;5.548;2023-05-29T11:06:06;32.10;49.20
24085;DHT22;12268;52.110;5.548;2023-05-29T11:11:14;33.50;47.10
24085;DHT22;12268;52.110;5.548;2023-05-29T11:13:40;34.20;46.50
24085;DHT22;12268;52.110;5.548;2023-05-29T11:19:04;34.60;45.90
24085;DHT22;12268;52.110;5.548;2023-05-29T11:44:48;35.60;41.40
24085;DHT22;12268;52.110;5.548;2023-05-29T11:47:13;35.20;41.30
24085;DHT22;12268;52.110;5.548;2023-05-29T11:49:40;35.30;41.80
24085;DHT22;12268;52.110;5.548;2023-05-29T11:52:10;34.90;41.30
24085;DHT22;12268;52.110;5.548;2023-05-29T11:54:36;34.70;41.60
24085;DHT22;12268;52.110;5.548;2023-05-29T11:57:02;35.10;42.50
24085;DHT22;12268;52.110;5.548;2023-05-29T12:20:13;34.70;41.40
24085;DHT22;12268;52.110;5.548;2023-05-29T12:22:41;35.30;41.50
24085;DHT22;12268;52.110;5.548;2023-05-29T12:25:17;35.60;41.80
24085;DHT22;12268;52.110;5.548;2023-05-29T12:27:44;35.30;42.90
24085;DHT22;12268;52.110;5.548;2023-05-29T12:32:41;34.60;41.90
24085;DHT22;12268;52.110;5.548;2023-05-29T12:37:46;33.90;42.20
24085;DHT22;12268;52.110;5.548;2023-05-29T12:50:34;33.10;43.10
24085;DHT22;12268;52.110;5.548;2023-05-29T12:53:07;33.10;42.80
24085;DHT22;12268;52.110;5.548;2023-05-29T12:55:35;32.70;43.10
24085;DHT22;12268;52.110;5.548;2023-05-29T13:00:38;32.90;43.20
24085;DHT22;12268;52.110;5.548;2023-05-29T13:03:04;33.00;42.70
24085;DHT22;12268;52.110;5.548;2023-05-29T13:05:30;32.40;43.80
24085;DHT22;12268;52.110;5.548;2023-05-29T13:07:57;32.30;45.60
24085;DHT22;12268;52.110;5.548;2023-05-29T13:10:24;32.30;43.90
24085;DHT22;12268;52.110;5.548;2023-05-29T13:12:50;31.70;44.70
24085;DHT22;12268;52.110;5.548;2023-05-29T13:15:19;30.60;44.90
24085;DHT22;12268;52.110;5.548;2023-05-29T13:17:45;29.90;46.50
24085;DHT22;12268;52.110;5.548;2023-05-29T13:20:12;29.70;47.10
24085;DHT22;12268;52.110;5.548;2023-05-29T13:22:39;29.70;47.20
24085;DHT22;12268;52.110;5.548;2023-05-29T13:25:05;29.70;48.70
24085;DHT22;12268;52.110;5.548;2023-05-29T13:27:32;30.00;47.80
24085;DHT22;12268;52.110;5.548;2023-05-29T13:29:58;30.50;48.10
24085;DHT22;12268;52.110;5.548;2023-05-29T13:32:24;30.40;46.50
24085;DHT22;12268;52.110;5.548;2023-05-29T13:34:49;29.90;46.30
24085;DHT22;12268;52.110;5.548;2023-05-29T13:37:15;29.80;48.20
24085;DHT22;12268;52.110;5.548;2023-05-29T13:39:40;29.60;48.80
24085;DHT22;12268;52.110;5.548;2023-05-29T13:42:07;29.40;47.20
24085;DHT22;12268;52.110;5.548;2023-05-29T13:44:33;29.30;49.10
24085;DHT22;12268;52.110;5.548;2023-05-29T13:46:58;29.20;49.30
24085;DHT22;12268;52.110;5.548;2023-05-29T13:49:25;29.10;49.00
24085;DHT22;12268;52.110;5.548;2023-05-29T13:51:51;28.80;48.00
24085;DHT22;12268;52.110;5.548;2023-05-29T13:54:17;28.80;48.40
24085;DHT22;12268;52.110;5.548;2023-05-29T13:56:43;28.50;48.00
24085;DHT22;12268;52.110;5.548;2023-05-29T13:59:09;28.50;49.70
24085;DHT22;12268;52.110;5.548;2023-05-29T14:01:35;28.60;49.20
24085;DHT22;12268;52.110;5.548;2023-05-29T14:04:00;28.60;48.30
24085;DHT22;12268;52.110;5.548;2023-05-29T14:06:26;28.30;48.40
24085;DHT22;12268;52.110;5.548;2023-05-29T14:08:52;28.40;49.20
24085;DHT22;12268;52.110;5.548;2023-05-29T14:11:18;28.20;48.60
24085;DHT22;12268;52.110;5.548;2023-05-29T14:13:44;28.10;48.10
24085;DHT22;12268;52.110;5.548;2023-05-29T14:16:09;28.00;48.30
24085;DHT22;12268;52.110;5.548;2023-05-29T14:18:35;28.00;49.60
24085;DHT22;12268;52.110;5.548;2023-05-29T14:21:00;28.10;48.90
24085;DHT22;12268;52.110;5.548;2023-05-29T14:23:26;27.90;49.30
24085;DHT22;12268;52.110;5.548;2023-05-29T14:25:51;27.70;49.60
24085;DHT22;12268;52.110;5.548;2023-05-29T14:28:17;27.90;49.50
24085;DHT22;12268;52.110;5.548;2023-05-29T14:30:43;28.20;48.80
24085;DHT22;12268;52.110;5.548;2023-05-29T14:33:09;28.00;48.00
24085;DHT22;12268;52.110;5.548;2023-05-29T14:35:34;27.90;48.80
24085;DHT22;12268;52.110;5.548;2023-05-29T14:38:00;27.80;48.70
24085;DHT22;12268;52.110;5.548;2023-05-29T14:40:25;27.80;49.10
24085;DHT22;12268;52.110;5.548;2023-05-29T14:42:51;27.80;49.90
24085;DHT22;12268;52.110;5.548;2023-05-29T14:45:17;27.90;48.80
24085;DHT22;12268;52.110;5.548;2023-05-29T14:47:43;28.00;49.60
24085;DHT22;12268;52.110;5.548;2023-05-29T14:50:09;28.00;49.10
24085;DHT22;12268;52.110;5.548;2023-05-29T14:52:35;27.90;49.10
24085;DHT22;12268;52.110;5.548;2023-05-29T14:55:06;27.80;48.60
24085;DHT22;12268;52.110;5.548;2023-05-29T14:57:32;27.60;49.40
24085;DHT22;12268;52.110;5.548;2023-05-29T15:00:00;27.30;49.20
24085;DHT22;12268;52.110;5.548;2023-05-29T15:02:25;26.90;49.90
24085;DHT22;12268;52.110;5.548;2023-05-29T15:04:51;26.60;49.40
24085;DHT22;12268;52.110;5.548;2023-05-29T15:07:17;26.50;50.00
24085;DHT22;12268;52.110;5.548;2023-05-29T15:09:42;26.60;49.60
24085;DHT22;12268;52.110;5.548;2023-05-29T15:12:08;26.50;50.80
24085;DHT22;12268;52.110;5.548;2023-05-29T15:14:35;26.50;49.90
24085;DHT22;12268;52.110;5.548;2023-05-29T15:17:01;26.50;50.70
24085;DHT22;12268;52.110;5.548;2023-05-29T15:19:27;26.60;51.40
24085;DHT22;12268;52.110;5.548;2023-05-29T15:21:52;26.80;50.50
24085;DHT22;12268;52.110;5.548;2023-05-29T15:24:18;26.70;50.20
24085;DHT22;12268;52.110;5.548;2023-05-29T15:26:44;26.40;50.90
24085;DHT22;12268;52.110;5.548;2023-05-29T15:29:09;26.20;51.00
24085;DHT22;12268;52.110;5.548;2023-05-29T15:31:36;26.30;51.50
24085;DHT22;12268;52.110;5.548;2023-05-29T15:34:02;26.20;51.70
24085;DHT22;12268;52.110;5.548;2023-05-29T15:36:27;26.00;51.50
24085;DHT22;12268;52.110;5.548;2023-05-29T15:38:54;26.10;51.30
24085;DHT22;12268;52.110;5.548;2023-05-29T15:41:20;26.20;52.50
24085;DHT22;12268;52.110;5.548;2023-05-29T15:43:45;26.40;51.10
24085;DHT22;12268;52.110;5.548;2023-05-29T15:46:11;26.50;50.40
24085;DHT22;12268;52.110;5.548;2023-05-29T15:48:36;26.50;49.50
24085;DHT22;12268;52.110;5.548;2023-05-29T15:51:02;26.40;49.30
24085;DHT22;12268;52.110;5.548;2023-05-29T15:53:27;26.10;49.60
24085;DHT22;12268;52.110;5.548;2023-05-29T15:55:53;25.70;50.10
24085;DHT22;12268;52.110;5.548;2023-05-29T15:58:19;25.50;50.10
24085;DHT22;12268;52.110;5.548;2023-05-29T16:00:44;25.30;50.30
24085;DHT22;12268;52.110;5.548;2023-05-29T16:03:10;25.20;51.60
24085;DHT22;12268;52.110;5.548;2023-05-29T16:05:36;25.10;50.60
24085;DHT22;12268;52.110;5.548;2023-05-29T16:08:01;25.00;50.20
24085;DHT22;12268;52.110;5.548;2023-05-29T16:10:28;24.90;50.30
24085;DHT22;12268;52.110;5.548;2023-05-29T16:12:54;25.00;50.70
24085;DHT22;12268;52.110;5.548;2023-05-29T16:15:20;25.00;52.40
24085;DHT22;12268;52.110;5.548;2023-05-29T16:17:46;25.10;51.10
24085;DHT22;12268;52.110;5.548;2023-05-29T16:20:12;25.10;51.80
24085;DHT22;12268;52.110;5.548;2023-05-29T16:22:38;25.20;51.20
24085;DHT22;12268;52.110;5.548;2023-05-29T16:25:04;25.20;50.40
24085;DHT22;12268;52.110;5.548;2023-05-29T16:27:31;25.10;50.80
24085;DHT22;12268;52.110;5.548;2023-05-29T16:29:56;25.00;52.20
24085;DHT22;12268;52.110;5.548;2023-05-29T16:32:22;24.90;50.70
24085;DHT22;12268;52.110;5.548;2023-05-29T16:34:48;24.90;51.70
24085;DHT22;12268;52.110;5.548;2023-05-29T16:37:13;24.80;52.10
24085;DHT22;12268;52.110;5.548;2023-05-29T16:39:39;24.70;51.10
24085;DHT22;12268;52.110;5.548;2023-05-29T16:42:05;24.60;51.00
24085;DHT22;12268;52.110;5.548;2023-05-29T16:44:32;24.60;50.40
24085;DHT22;12268;52.110;5.548;2023-05-29T16:46:58;24.50;50.60
24085;DHT22;12268;52.110;5.548;2023-05-29T16:49:23;24.40;50.00
24085;DHT22;12268;52.110;5.548;2023-05-29T16:51:51;24.20;51.60
24085;DHT22;12268;52.110;5.548;2023-05-29T16:54:17;24.20;51.30
24085;DHT22;12268;52.110;5.548;2023-05-29T16:56:43;24.00;51.50
24085;DHT22;12268;52.110;5.548;2023-05-29T16:59:08;23.80;51.70
24085;DHT22;12268;52.110;5.548;2023-05-29T17:01:34;23.60;51.60
24085;DHT22;12268;52.110;5.548;2023-05-29T17:04:00;23.50;52.00
24085;DHT22;12268;52.110;5.548;2023-05-29T17:06:26;23.30;52.70
24085;DHT22;12268;52.110;5.548;2023-05-29T17:08:51;23.20;53.50
24085;DHT22;12268;52.110;5.548;2023-05-29T17:11:17;23.10;53.90
24085;DHT22;12268;52.110;5.548;2023-05-29T17:13:42;23.00;53.40
24085;DHT22;12268;52.110;5.548;2023-05-29T17:16:08;23.00;53.10
24085;DHT22;12268;52.110;5.548;2023-05-29T17:18:33;22.90;53.00
24085;DHT22;12268;52.110;5.548;2023-05-29T17:20:59;22.70;53.10
24085;DHT22;12268;52.110;5.548;2023-05-29T17:23:24;22.40;54.40
24085;DHT22;12268;52.110;5.548;2023-05-29T17:25:50;22.30;54.40
24085;DHT22;12268;52.110;5.548;2023-05-29T17:28:16;22.10;54.90
24085;DHT22;12268;52.110;5.548;2023-05-29T17:30:41;22.00;54.80
24085;DHT22;12268;52.110;5.548;2023-05-29T17:33:07;21.90;55.60
24085;DHT22;12268;52.110;5.548;2023-05-29T17:35:33;21.80;56.30
24085;DHT22;12268;52.110;5.548;2023-05-29T17:37:58;21.70;55.50
24085;DHT22;12268;52.110;5.548;2023-05-29T17:40:24;21.60;56.60
24085;DHT22;12268;52.110;5.548;2023-05-29T17:42:50;21.50;56.80
24085;DHT22;12268;52.110;5.548;2023-05-29T17:45:16;21.40;56.50
24085;DHT22;12268;52.110;5.548;2023-05-29T17:47:41;21.20;56.70
24085;DHT22;12268;52.110;5.548;2023-05-29T17:50:07;21.10;57.00
24085;DHT22;12268;52.110;5.548;2023-05-29T17:52:33;21.00;56.80
24085;DHT22;12268;52.110;5.548;2023-05-29T17:54:58;20.80;57.30
24085;DHT22;12268;52.110;5.548;2023-05-29T17:57:24;20.60;58.30
24085;DHT22;12268;52.110;5.548;2023-05-29T17:59:51;20.60;58.40
24085;DHT22;12268;52.110;5.548;2023-05-29T18:02:16;20.50;58.00
24085;DHT22;12268;52.110;5.548;2023-05-29T18:04:42;20.40;58.20
24085;DHT22;12268;52.110;5.548;2023-05-29T18:07:08;20.30;59.10
24085;DHT22;12268;52.110;5.548;2023-05-29T18:09:34;20.20;59.20
24085;DHT22;12268;52.110;5.548;2023-05-29T18:12:00;20.10;59.80
24085;DHT22;12268;52.110;5.548;2023-05-29T18:14:27;20.10;59.50
24085;DHT22;12268;52.110;5.548;2023-05-29T18:16:52;20.20;59.70
24085;DHT22;12268;52.110;5.548;2023-05-29T18:19:18;20.20;59.50
24085;DHT22;12268;52.110;5.548;2023-05-29T18:21:43;20.20;59.40
24085;DHT22;12268;52.110;5.548;2023-05-29T18:24:09;20.00;59.20
24085;DHT22;12268;52.110;5.548;2023-05-29T18:26:34;20.00;59.30
24085;DHT22;12268;52.110;5.548;2023-05-29T18:29:00;20.00;59.60
24085;DHT22;12268;52.110;5.548;2023-05-29T18:31:27;19.90;59.60
24085;DHT22;12268;52.110;5.548;2023-05-29T18:33:53;19.90;59.70
24085;DHT22;12268;52.110;5.548;2023-05-29T18:36:18;19.80;59.20
24085;DHT22;12268;52.110;5.548;2023-05-29T18:38:44;19.70;58.90
24085;DHT22;12268;52.110;5.548;2023-05-29T18:41:10;19.70;59.40
24085;DHT22;12268;52.110;5.548;2023-05-29T18:43:36;19.50;59.60
24085;DHT22;12268;52.110;5.548;2023-05-29T18:46:02;19.50;59.80
24085;DHT22;12268;52.110;5.548;2023-05-29T18:48:27;19.50;60.20
24085;DHT22;12268;52.110;5.548;2023-05-29T18:50:53;19.40;59.90
24085;DHT22;12268;52.110;5.548;2023-05-29T18:53:18;19.20;60.30
24085;DHT22;12268;52.110;5.548;2023-05-29T18:55:44;19.30;60.80
24085;DHT22;12268;52.110;5.548;2023-05-29T18:58:10;19.40;61.00
24085;DHT22;12268;52.110;5.548;2023-05-29T19:00:35;19.20;60.40
24085;DHT22;12268;52.110;5.548;2023-05-29T19:03:02;19.20;61.30
24085;DHT22;12268;52.110;5.548;2023-05-29T19:05:27;19.10;61.30
24085;DHT22;12268;52.110;5.548;2023-05-29T19:07:53;19.00;62.00
24085;DHT22;12268;52.110;5.548;2023-05-29T19:10:19;18.90;62.60
24085;DHT22;12268;52.110;5.548;2023-05-29T19:12:45;18.80;62.50
24085;DHT22;12268;52.110;5.548;2023-05-29T19:15:11;18.70;63.60
24085;DHT22;12268;52.110;5.548;2023-05-29T19:17:39;18.60;63.90
24085;DHT22;12268;52.110;5.548;2023-05-29T19:20:06;18.50;64.30
24085;DHT22;12268;52.110;5.548;2023-05-29T19:22:32;18.40;65.40
24085;DHT22;12268;52.110;5.548;2023-05-29T19:25:00;18.40;65.20
24085;DHT22;12268;52.110;5.548;2023-05-29T19:27:26;18.30;66.20
24085;DHT22;12268;52.110;5.548;2023-05-29T19:29:51;18.30;67.20
24085;DHT22;12268;52.110;5.548;2023-05-29T19:32:17;18.10;67.60
24085;DHT22;12268;52.110;5.548;2023-05-29T19:34:46;18.00;68.30
24085;DHT22;12268;52.110;5.548;2023-05-29T19:37:12;17.90;68.80
24085;DHT22;12268;52.110;5.548;2023-05-29T19:39:38;17.80;69.70
24085;DHT22;12268;52.110;5.548;2023-05-29T19:42:04;17.80;70.40
24085;DHT22;12268;52.110;5.548;2023-05-29T19:44:33;17.70;70.50
24085;DHT22;12268;52.110;5.548;2023-05-29T19:46:59;17.70;70.90
24085;DHT22;12268;52.110;5.548;2023-05-29T19:49:25;17.60;71.70
24085;DHT22;12268;52.110;5.548;2023-05-29T19:51:51;17.60;71.60
24085;DHT22;12268;52.110;5.548;2023-05-29T19:54:17;17.60;71.60
24085;DHT22;12268;52.110;5.548;2023-05-29T19:56:43;17.60;72.10
24085;DHT22;12268;52.110;5.548;2023-05-29T19:59:08;17.50;72.50
24085;DHT22;12268;52.110;5.548;2023-05-29T20:01:34;17.40;73.10
24085;DHT22;12268;52.110;5.548;2023-05-29T20:04:00;17.30;73.90
24085;DHT22;12268;52.110;5.548;2023-05-29T20:06:28;17.30;74.50
24085;DHT22;12268;52.110;5.548;2023-05-29T20:08:56;17.30;75.50
24085;DHT22;12268;52.110;5.548;2023-05-29T20:11:22;17.30;76.10
24085;DHT22;12268;52.110;5.548;2023-05-29T20:13:47;17.30;76.60
24085;DHT22;12268;52.110;5.548;2023-05-29T20:16:13;17.20;77.00
24085;DHT22;12268;52.110;5.548;2023-05-29T20:18:38;17.10;78.40
24085;DHT22;12268;52.110;5.548;2023-05-29T20:21:04;17.00;78.50
24085;DHT22;12268;52.110;5.548;2023-05-29T20:23:30;17.00;80.40
24085;DHT22;12268;52.110;5.548;2023-05-29T20:25:55;16.90;80.50
24085;DHT22;12268;52.110;5.548;2023-05-29T20:28:21;16.90;81.30
24085;DHT22;12268;52.110;5.548;2023-05-29T20:30:48;16.90;82.20
24085;DHT22;12268;52.110;5.548;2023-05-29T20:33:14;16.90;83.60
24085;DHT22;12268;52.110;5.548;2023-05-29T20:35:39;16.80;84.10
24085;DHT22;12268;52.110;5.548;2023-05-29T20:38:06;16.50;86.20
24085;DHT22;12268;52.110;5.548;2023-05-29T20:40:32;16.50;87.50
24085;DHT22;12268;52.110;5.548;2023-05-29T20:43:01;16.50;89.30
24085;DHT22;12268;52.110;5.548;2023-05-29T20:45:30;16.50;90.10
24085;DHT22;12268;52.110;5.548;2023-05-29T20:47:56;16.40;90.60
24085;DHT22;12268;52.110;5.548;2023-05-29T20:50:22;16.40;91.40
24085;DHT22;12268;52.110;5.548;2023-05-29T20:52:54;16.30;92.00
24085;DHT22;12268;52.110;5.548;2023-05-29T20:55:19;16.20;92.80